General O'Brien, Argentina
Current Conditions -  °F | °C
As of 8:00 AM on Friday 19 Dec 2014 (Local Time) from SAEZ Reporting Station
Clear Clear  
Wind Chill: 26°   Ceiling: Unl
Heat Index: 27°   Visibility: 6mi
Dew Point: 16°   Wind: 14mph
Humidity: 54%   Direction: 320°NW
Pressure: 29.71"   Gusts: NA
Location:  34.91°S, 60.63°W
Report Text: SAEZ 191100Z 32012KT 280V350 CAVOK 26/16 Q1006
Loading
Personal Weather Stations






























Interactive Weather Map New forecast layout! Learn more

10-Day Weather Forecast

Advertisements
Track Severe Weather on mobile